sensor_id;sensor_type;location;lat;lon;timestamp;P1;durP1;ratioP1;P2;durP2;ratioP2
67640;SDS011;54434;50.096;20.082;2023-01-24T00:02:05;39.70;;;18.40;;
67640;SDS011;54434;50.096;20.082;2023-01-24T00:04:42;46.00;;;18.70;;
67640;SDS011;54434;50.096;20.082;2023-01-24T00:07:19;45.30;;;20.70;;
67640;SDS011;54434;50.096;20.082;2023-01-24T00:09:55;41.80;;;17.90;;
67640;SDS011;54434;50.096;20.082;2023-01-24T00:12:32;40.30;;;18.90;;
67640;SDS011;54434;50.096;20.082;2023-01-24T00:15:11;41.50;;;19.80;;
67640;SDS011;54434;50.096;20.082;2023-01-24T00:17:47;36.20;;;17.60;;
67640;SDS011;54434;50.096;20.082;2023-01-24T00:20:24;40.10;;;18.80;;
67640;SDS011;54434;50.096;20.082;2023-01-24T00:23:00;39.90;;;19.70;;
67640;SDS011;54434;50.096;20.082;2023-01-24T00:25:37;44.00;;;20.50;;
67640;SDS011;54434;50.096;20.082;2023-01-24T00:28:13;45.20;;;21.30;;
67640;SDS011;54434;50.096;20.082;2023-01-24T00:30:50;41.40;;;20.40;;
67640;SDS011;54434;50.096;20.082;2023-01-24T00:33:26;38.60;;;18.20;;
67640;SDS011;54434;50.096;20.082;2023-01-24T00:36:04;40.60;;;19.30;;
67640;SDS011;54434;50.096;20.082;2023-01-24T00:38:41;39.30;;;19.10;;
67640;SDS011;54434;50.096;20.082;2023-01-24T00:41:17;42.10;;;19.90;;
67640;SDS011;54434;50.096;20.082;2023-01-24T00:43:53;39.20;;;18.50;;
67640;SDS011;54434;50.096;20.082;2023-01-24T00:46:30;38.60;;;20.30;;
67640;SDS011;54434;50.096;20.082;2023-01-24T00:49:06;34.20;;;17.40;;
67640;SDS011;54434;50.096;20.082;2023-01-24T00:51:43;40.90;;;19.30;;
67640;SDS011;54434;50.096;20.082;2023-01-24T00:54:20;39.00;;;17.70;;
67640;SDS011;54434;50.096;20.082;2023-01-24T00:56:57;38.70;;;17.70;;
67640;SDS011;54434;50.096;20.082;2023-01-24T00:59:33;45.70;;;20.50;;
67640;SDS011;54434;50.096;20.082;2023-01-24T01:02:11;37.20;;;17.30;;
67640;SDS011;54434;50.096;20.082;2023-01-24T01:04:48;40.40;;;19.10;;
67640;SDS011;54434;50.096;20.082;2023-01-24T01:07:25;42.60;;;20.70;;
67640;SDS011;54434;50.096;20.082;2023-01-24T01:10:01;41.20;;;19.80;;
67640;SDS011;54434;50.096;20.082;2023-01-24T01:12:38;45.20;;;20.80;;
67640;SDS011;54434;50.096;20.082;2023-01-24T01:15:15;42.90;;;20.60;;
67640;SDS011;54434;50.096;20.082;2023-01-24T01:17:52;41.50;;;19.80;;
67640;SDS011;54434;50.096;20.082;2023-01-24T01:20:28;42.00;;;18.60;;
67640;SDS011;54434;50.096;20.082;2023-01-24T01:23:05;48.00;;;19.80;;
67640;SDS011;54434;50.096;20.082;2023-01-24T01:25:42;43.70;;;19.50;;
67640;SDS011;54434;50.096;20.082;2023-01-24T01:28:18;43.70;;;20.40;;
67640;SDS011;54434;50.096;20.082;2023-01-24T01:30:56;43.60;;;19.30;;
67640;SDS011;54434;50.096;20.082;2023-01-24T01:33:34;42.60;;;19.20;;
67640;SDS011;54434;50.096;20.082;2023-01-24T01:36:11;40.40;;;18.00;;
67640;SDS011;54434;50.096;20.082;2023-01-24T01:38:48;40.40;;;18.80;;
67640;SDS011;54434;50.096;20.082;2023-01-24T01:41:24;41.00;;;19.60;;
67640;SDS011;54434;50.096;20.082;2023-01-24T01:44:24;42.10;;;17.90;;
67640;SDS011;54434;50.096;20.082;2023-01-24T01:47:28;44.00;;;19.70;;
67640;SDS011;54434;50.096;20.082;2023-01-24T01:50:17;43.70;;;17.90;;
67640;SDS011;54434;50.096;20.082;2023-01-24T01:53:00;40.40;;;18.40;;
67640;SDS011;54434;50.096;20.082;2023-01-24T01:55:40;45.30;;;18.10;;
67640;SDS011;54434;50.096;20.082;2023-01-24T01:58:22;44.40;;;19.60;;
67640;SDS011;54434;50.096;20.082;2023-01-24T02:00:59;44.80;;;18.90;;
67640;SDS011;54434;50.096;20.082;2023-01-24T02:03:42;44.80;;;20.00;;
67640;SDS011;54434;50.096;20.082;2023-01-24T02:06:47;45.00;;;19.00;;
67640;SDS011;54434;50.096;20.082;2023-01-24T02:09:31;51.30;;;20.80;;
67640;SDS011;54434;50.096;20.082;2023-01-24T02:12:18;52.00;;;20.90;;
67640;SDS011;54434;50.096;20.082;2023-01-24T02:15:01;44.90;;;18.90;;
67640;SDS011;54434;50.096;20.082;2023-01-24T02:17:57;46.60;;;20.10;;
67640;SDS011;54434;50.096;20.082;2023-01-24T02:20:40;52.40;;;20.50;;
67640;SDS011;54434;50.096;20.082;2023-01-24T02:23:27;47.10;;;19.20;;
67640;SDS011;54434;50.096;20.082;2023-01-24T02:26:13;44.60;;;18.60;;
67640;SDS011;54434;50.096;20.082;2023-01-24T02:28:57;48.30;;;20.10;;
67640;SDS011;54434;50.096;20.082;2023-01-24T02:31:58;56.10;;;20.30;;
67640;SDS011;54434;50.096;20.082;2023-01-24T02:34:35;39.80;;;17.40;;
67640;SDS011;54434;50.096;20.082;2023-01-24T02:37:13;47.80;;;19.60;;
67640;SDS011;54434;50.096;20.082;2023-01-24T02:39:53;44.30;;;18.70;;
67640;SDS011;54434;50.096;20.082;2023-01-24T02:42:35;49.60;;;20.20;;
67640;SDS011;54434;50.096;20.082;2023-01-24T02:45:16;46.70;;;19.80;;
67640;SDS011;54434;50.096;20.082;2023-01-24T02:47:57;52.20;;;20.20;;
67640;SDS011;54434;50.096;20.082;2023-01-24T02:50:34;46.70;;;19.60;;
67640;SDS011;54434;50.096;20.082;2023-01-24T02:53:24;47.30;;;18.90;;
67640;SDS011;54434;50.096;20.082;2023-01-24T02:56:07;45.60;;;18.80;;
67640;SDS011;54434;50.096;20.082;2023-01-24T02:59:02;46.30;;;18.60;;
67640;SDS011;54434;50.096;20.082;2023-01-24T03:01:38;55.20;;;21.20;;
67640;SDS011;54434;50.096;20.082;2023-01-24T03:04:15;51.00;;;20.60;;
67640;SDS011;54434;50.096;20.082;2023-01-24T03:06:51;44.90;;;18.80;;
67640;SDS011;54434;50.096;20.082;2023-01-24T03:09:28;43.40;;;17.00;;
67640;SDS011;54434;50.096;20.082;2023-01-24T03:12:12;44.80;;;18.10;;
67640;SDS011;54434;50.096;20.082;2023-01-24T03:15:09;49.00;;;19.90;;
67640;SDS011;54434;50.096;20.082;2023-01-24T03:18:03;44.60;;;19.00;;
67640;SDS011;54434;50.096;20.082;2023-01-24T03:20:58;42.60;;;17.90;;
67640;SDS011;54434;50.096;20.082;2023-01-24T03:23:52;40.80;;;17.30;;
67640;SDS011;54434;50.096;20.082;2023-01-24T03:26:47;39.40;;;15.50;;
67640;SDS011;54434;50.096;20.082;2023-01-24T03:29:42;38.30;;;15.30;;
67640;SDS011;54434;50.096;20.082;2023-01-24T03:32:36;40.30;;;15.40;;
67640;SDS011;54434;50.096;20.082;2023-01-24T03:35:31;34.40;;;16.00;;
67640;SDS011;54434;50.096;20.082;2023-01-24T03:38:07;29.60;;;14.00;;
67640;SDS011;54434;50.096;20.082;2023-01-24T03:41:01;32.00;;;14.80;;
67640;SDS011;54434;50.096;20.082;2023-01-24T03:43:38;30.70;;;13.60;;
67640;SDS011;54434;50.096;20.082;2023-01-24T03:46:15;35.40;;;15.30;;
67640;SDS011;54434;50.096;20.082;2023-01-24T03:48:57;34.70;;;14.50;;
67640;SDS011;54434;50.096;20.082;2023-01-24T03:51:38;33.70;;;15.30;;
67640;SDS011;54434;50.096;20.082;2023-01-24T03:54:32;28.70;;;13.50;;
67640;SDS011;54434;50.096;20.082;2023-01-24T03:57:11;29.50;;;13.60;;
67640;SDS011;54434;50.096;20.082;2023-01-24T03:59:48;35.40;;;14.60;;
67640;SDS011;54434;50.096;20.082;2023-01-24T04:02:24;34.70;;;14.90;;
67640;SDS011;54434;50.096;20.082;2023-01-24T04:05:01;30.90;;;15.10;;
67640;SDS011;54434;50.096;20.082;2023-01-24T04:07:48;32.50;;;15.60;;
67640;SDS011;54434;50.096;20.082;2023-01-24T04:10:25;32.70;;;14.50;;
67640;SDS011;54434;50.096;20.082;2023-01-24T04:13:02;31.10;;;15.40;;
67640;SDS011;54434;50.096;20.082;2023-01-24T04:15:39;35.80;;;14.60;;
67640;SDS011;54434;50.096;20.082;2023-01-24T04:18:30;35.80;;;15.30;;
67640;SDS011;54434;50.096;20.082;2023-01-24T04:21:07;34.00;;;15.20;;
67640;SDS011;54434;50.096;20.082;2023-01-24T04:23:43;33.90;;;14.30;;
67640;SDS011;54434;50.096;20.082;2023-01-24T04:26:20;31.20;;;13.10;;
67640;SDS011;54434;50.096;20.082;2023-01-24T04:28:58;34.10;;;14.40;;
67640;SDS011;54434;50.096;20.082;2023-01-24T04:31:34;36.00;;;14.80;;
67640;SDS011;54434;50.096;20.082;2023-01-24T04:34:24;32.50;;;15.00;;
67640;SDS011;54434;50.096;20.082;2023-01-24T04:37:01;34.40;;;14.30;;
67640;SDS011;54434;50.096;20.082;2023-01-24T04:39:37;33.10;;;15.20;;
67640;SDS011;54434;50.096;20.082;2023-01-24T04:42:18;38.20;;;15.60;;
67640;SDS011;54434;50.096;20.082;2023-01-24T04:44:54;33.10;;;14.90;;
67640;SDS011;54434;50.096;20.082;2023-01-24T04:47:31;34.10;;;13.70;;
67640;SDS011;54434;50.096;20.082;2023-01-24T04:50:10;35.70;;;14.70;;
67640;SDS011;54434;50.096;20.082;2023-01-24T04:52:46;27.90;;;11.90;;
67640;SDS011;54434;50.096;20.082;2023-01-24T04:55:23;31.90;;;14.20;;
67640;SDS011;54434;50.096;20.082;2023-01-24T04:57:59;30.10;;;14.20;;
67640;SDS011;54434;50.096;20.082;2023-01-24T05:00:36;37.20;;;14.50;;
67640;SDS011;54434;50.096;20.082;2023-01-24T05:03:13;33.30;;;15.20;;
67640;SDS011;54434;50.096;20.082;2023-01-24T05:05:53;36.10;;;14.90;;
67640;SDS011;54434;50.096;20.082;2023-01-24T05:08:31;36.30;;;14.40;;
67640;SDS011;54434;50.096;20.082;2023-01-24T05:11:10;31.70;;;13.40;;
67640;SDS011;54434;50.096;20.082;2023-01-24T05:13:51;33.30;;;14.60;;
67640;SDS011;54434;50.096;20.082;2023-01-24T05:16:27;32.10;;;12.50;;
67640;SDS011;54434;50.096;20.082;2023-01-24T05:19:04;37.40;;;14.20;;
67640;SDS011;54434;50.096;20.082;2023-01-24T05:21:40;32.00;;;14.30;;
67640;SDS011;54434;50.096;20.082;2023-01-24T05:24:17;32.50;;;14.10;;
67640;SDS011;54434;50.096;20.082;2023-01-24T05:26:54;32.60;;;13.90;;
67640;SDS011;54434;50.096;20.082;2023-01-24T05:29:31;28.10;;;12.10;;
67640;SDS011;54434;50.096;20.082;2023-01-24T05:32:08;33.40;;;13.90;;
67640;SDS011;54434;50.096;20.082;2023-01-24T05:34:46;33.10;;;13.40;;
67640;SDS011;54434;50.096;20.082;2023-01-24T05:37:23;36.20;;;14.50;;
67640;SDS011;54434;50.096;20.082;2023-01-24T05:40:00;36.60;;;14.00;;
67640;SDS011;54434;50.096;20.082;2023-01-24T05:42:38;33.80;;;14.00;;
67640;SDS011;54434;50.096;20.082;2023-01-24T05:45:16;33.00;;;13.10;;
67640;SDS011;54434;50.096;20.082;2023-01-24T05:47:53;31.90;;;13.00;;
67640;SDS011;54434;50.096;20.082;2023-01-24T05:50:30;28.80;;;13.30;;
67640;SDS011;54434;50.096;20.082;2023-01-24T05:53:15;30.50;;;13.40;;
67640;SDS011;54434;50.096;20.082;2023-01-24T05:55:58;33.50;;;13.50;;
67640;SDS011;54434;50.096;20.082;2023-01-24T05:58:38;24.00;;;11.50;;
67640;SDS011;54434;50.096;20.082;2023-01-24T06:01:18;27.80;;;12.20;;
67640;SDS011;54434;50.096;20.082;2023-01-24T06:03:59;26.20;;;11.20;;
67640;SDS011;54434;50.096;20.082;2023-01-24T06:06:38;26.10;;;12.40;;
67640;SDS011;54434;50.096;20.082;2023-01-24T06:09:14;24.40;;;11.70;;
67640;SDS011;54434;50.096;20.082;2023-01-24T06:11:51;24.40;;;11.10;;
67640;SDS011;54434;50.096;20.082;2023-01-24T06:14:28;22.80;;;10.80;;
67640;SDS011;54434;50.096;20.082;2023-01-24T06:17:04;27.50;;;11.40;;
67640;SDS011;54434;50.096;20.082;2023-01-24T06:19:43;27.20;;;11.60;;
67640;SDS011;54434;50.096;20.082;2023-01-24T06:22:28;28.30;;;12.50;;
67640;SDS011;54434;50.096;20.082;2023-01-24T06:25:19;29.40;;;12.10;;
67640;SDS011;54434;50.096;20.082;2023-01-24T06:27:59;24.10;;;11.30;;
67640;SDS011;54434;50.096;20.082;2023-01-24T06:30:37;25.80;;;11.20;;
67640;SDS011;54434;50.096;20.082;2023-01-24T06:33:29;32.20;;;12.70;;
67640;SDS011;54434;50.096;20.082;2023-01-24T06:36:24;26.30;;;11.60;;
67640;SDS011;54434;50.096;20.082;2023-01-24T06:39:15;23.20;;;10.40;;
67640;SDS011;54434;50.096;20.082;2023-01-24T06:41:55;27.90;;;11.50;;
67640;SDS011;54434;50.096;20.082;2023-01-24T06:44:33;28.00;;;11.60;;
67640;SDS011;54434;50.096;20.082;2023-01-24T06:47:11;32.90;;;13.10;;
67640;SDS011;54434;50.096;20.082;2023-01-24T06:49:48;37.40;;;14.30;;
67640;SDS011;54434;50.096;20.082;2023-01-24T06:52:25;32.80;;;12.70;;
67640;SDS011;54434;50.096;20.082;2023-01-24T06:55:02;29.40;;;11.60;;
67640;SDS011;54434;50.096;20.082;2023-01-24T06:57:40;45.40;;;12.00;;
67640;SDS011;54434;50.096;20.082;2023-01-24T07:00:20;31.90;;;10.30;;
67640;SDS011;54434;50.096;20.082;2023-01-24T07:03:05;27.20;;;10.20;;
67640;SDS011;54434;50.096;20.082;2023-01-24T07:05:42;34.50;;;10.90;;
67640;SDS011;54434;50.096;20.082;2023-01-24T07:08:18;28.20;;;10.10;;
67640;SDS011;54434;50.096;20.082;2023-01-24T07:10:58;21.30;;;9.30;;
67640;SDS011;54434;50.096;20.082;2023-01-24T07:13:35;28.20;;;9.50;;
67640;SDS011;54434;50.096;20.082;2023-01-24T07:16:11;30.70;;;10.10;;
67640;SDS011;54434;50.096;20.082;2023-01-24T07:18:50;25.50;;;10.10;;
67640;SDS011;54434;50.096;20.082;2023-01-24T07:21:28;36.50;;;11.40;;
67640;SDS011;54434;50.096;20.082;2023-01-24T07:24:12;27.60;;;9.70;;
67640;SDS011;54434;50.096;20.082;2023-01-24T07:26:52;28.70;;;10.10;;
67640;SDS011;54434;50.096;20.082;2023-01-24T07:29:29;32.10;;;10.60;;
67640;SDS011;54434;50.096;20.082;2023-01-24T07:32:06;26.90;;;10.10;;
67640;SDS011;54434;50.096;20.082;2023-01-24T07:34:44;33.50;;;10.60;;
67640;SDS011;54434;50.096;20.082;2023-01-24T07:37:20;34.30;;;10.70;;
67640;SDS011;54434;50.096;20.082;2023-01-24T07:39:57;27.10;;;10.60;;
67640;SDS011;54434;50.096;20.082;2023-01-24T07:42:34;24.40;;;9.10;;
67640;SDS011;54434;50.096;20.082;2023-01-24T07:45:11;36.80;;;11.80;;
67640;SDS011;54434;50.096;20.082;2023-01-24T07:47:48;24.60;;;10.30;;
67640;SDS011;54434;50.096;20.082;2023-01-24T07:50:52;33.70;;;11.00;;
67640;SDS011;54434;50.096;20.082;2023-01-24T07:53:31;32.60;;;11.20;;
67640;SDS011;54434;50.096;20.082;2023-01-24T07:56:10;30.30;;;10.70;;
67640;SDS011;54434;50.096;20.082;2023-01-24T07:58:58;31.70;;;10.70;;
67640;SDS011;54434;50.096;20.082;2023-01-24T08:01:34;32.70;;;11.30;;
67640;SDS011;54434;50.096;20.082;2023-01-24T08:04:11;31.20;;;11.10;;
67640;SDS011;54434;50.096;20.082;2023-01-24T08:06:47;30.80;;;10.70;;
67640;SDS011;54434;50.096;20.082;2023-01-24T08:09:37;30.50;;;11.20;;
67640;SDS011;54434;50.096;20.082;2023-01-24T08:12:14;40.90;;;12.20;;
67640;SDS011;54434;50.096;20.082;2023-01-24T08:14:51;38.60;;;11.60;;
67640;SDS011;54434;50.096;20.082;2023-01-24T08:17:28;36.80;;;12.00;;
67640;SDS011;54434;50.096;20.082;2023-01-24T08:20:05;48.80;;;12.90;;
67640;SDS011;54434;50.096;20.082;2023-01-24T08:22:43;42.30;;;14.30;;
67640;SDS011;54434;50.096;20.082;2023-01-24T08:25:30;30.50;;;12.10;;
67640;SDS011;54434;50.096;20.082;2023-01-24T08:28:07;47.80;;;12.70;;
67640;SDS011;54434;50.096;20.082;2023-01-24T08:32:42;36.40;;;13.40;;
67640;SDS011;54434;50.096;20.082;2023-01-24T08:35:19;43.70;;;12.90;;
67640;SDS011;54434;50.096;20.082;2023-01-24T08:37:56;36.50;;;14.10;;
67640;SDS011;54434;50.096;20.082;2023-01-24T08:40:33;36.20;;;13.30;;
67640;SDS011;54434;50.096;20.082;2023-01-24T08:43:21;42.20;;;13.30;;
67640;SDS011;54434;50.096;20.082;2023-01-24T08:45:58;36.50;;;11.90;;
67640;SDS011;54434;50.096;20.082;2023-01-24T08:48:34;44.70;;;15.10;;
67640;SDS011;54434;50.096;20.082;2023-01-24T08:51:11;46.50;;;14.00;;
67640;SDS011;54434;50.096;20.082;2023-01-24T08:53:47;43.90;;;13.80;;
67640;SDS011;54434;50.096;20.082;2023-01-24T08:56:23;44.20;;;13.40;;
67640;SDS011;54434;50.096;20.082;2023-01-24T08:59:00;44.90;;;12.20;;
67640;SDS011;54434;50.096;20.082;2023-01-24T09:01:36;31.80;;;13.40;;
67640;SDS011;54434;50.096;20.082;2023-01-24T09:04:14;38.20;;;12.60;;
67640;SDS011;54434;50.096;20.082;2023-01-24T09:06:52;40.00;;;12.80;;
67640;SDS011;54434;50.096;20.082;2023-01-24T09:09:28;40.80;;;13.50;;
67640;SDS011;54434;50.096;20.082;2023-01-24T09:12:06;32.40;;;11.90;;
67640;SDS011;54434;50.096;20.082;2023-01-24T09:14:42;34.30;;;13.40;;
67640;SDS011;54434;50.096;20.082;2023-01-24T09:17:19;56.10;;;15.20;;
67640;SDS011;54434;50.096;20.082;2023-01-24T09:19:55;45.40;;;14.30;;
67640;SDS011;54434;50.096;20.082;2023-01-24T09:22:31;38.50;;;13.00;;
67640;SDS011;54434;50.096;20.082;2023-01-24T09:25:10;48.40;;;14.00;;
67640;SDS011;54434;50.096;20.082;2023-01-24T09:27:53;40.20;;;12.60;;
67640;SDS011;54434;50.096;20.082;2023-01-24T09:30:30;31.40;;;12.50;;
67640;SDS011;54434;50.096;20.082;2023-01-24T09:33:07;34.00;;;11.40;;
67640;SDS011;54434;50.096;20.082;2023-01-24T09:35:43;30.40;;;12.80;;
67640;SDS011;54434;50.096;20.082;2023-01-24T09:38:28;32.50;;;12.20;;
67640;SDS011;54434;50.096;20.082;2023-01-24T09:41:20;63.10;;;13.10;;
67640;SDS011;54434;50.096;20.082;2023-01-24T09:44:19;32.10;;;12.00;;
67640;SDS011;54434;50.096;20.082;2023-01-24T09:47:06;28.90;;;11.80;;
67640;SDS011;54434;50.096;20.082;2023-01-24T09:49:55;35.90;;;12.50;;
67640;SDS011;54434;50.096;20.082;2023-01-24T09:52:40;39.70;;;11.60;;
67640;SDS011;54434;50.096;20.082;2023-01-24T09:55:23;58.40;;;14.40;;
67640;SDS011;54434;50.096;20.082;2023-01-24T09:58:06;33.40;;;11.00;;
67640;SDS011;54434;50.096;20.082;2023-01-24T10:01:04;35.20;;;12.40;;
67640;SDS011;54434;50.096;20.082;2023-01-24T10:03:45;49.30;;;21.30;;
67640;SDS011;54434;50.096;20.082;2023-01-24T10:06:25;34.00;;;12.90;;
67640;SDS011;54434;50.096;20.082;2023-01-24T10:09:09;28.80;;;12.20;;
67640;SDS011;54434;50.096;20.082;2023-01-24T10:11:59;38.50;;;13.20;;
67640;SDS011;54434;50.096;20.082;2023-01-24T10:14:59;25.40;;;10.50;;
67640;SDS011;54434;50.096;20.082;2023-01-24T10:24:09;25.60;;;10.70;;
67640;SDS011;54434;50.096;20.082;2023-01-24T10:26:52;25.70;;;10.70;;
67640;SDS011;54434;50.096;20.082;2023-01-24T10:29:31;21.80;;;9.40;;
67640;SDS011;54434;50.096;20.082;2023-01-24T10:32:16;30.60;;;12.30;;
67640;SDS011;54434;50.096;20.082;2023-01-24T10:35:01;23.40;;;9.70;;
67640;SDS011;54434;50.096;20.082;2023-01-24T10:37:50;25.20;;;10.70;;
67640;SDS011;54434;50.096;20.082;2023-01-24T10:40:30;30.10;;;12.10;;
67640;SDS011;54434;50.096;20.082;2023-01-24T10:43:09;23.00;;;10.70;;
67640;SDS011;54434;50.096;20.082;2023-01-24T10:46:00;26.80;;;11.30;;
67640;SDS011;54434;50.096;20.082;2023-01-24T10:48:48;21.20;;;9.40;;
67640;SDS011;54434;50.096;20.082;2023-01-24T10:51:28;20.70;;;9.40;;
67640;SDS011;54434;50.096;20.082;2023-01-24T10:54:04;22.20;;;10.10;;
67640;SDS011;54434;50.096;20.082;2023-01-24T10:56:55;19.10;;;10.50;;
67640;SDS011;54434;50.096;20.082;2023-01-24T10:59:32;22.10;;;10.70;;
67640;SDS011;54434;50.096;20.082;2023-01-24T11:02:21;24.60;;;10.40;;
67640;SDS011;54434;50.096;20.082;2023-01-24T11:05:04;21.50;;;9.70;;
67640;SDS011;54434;50.096;20.082;2023-01-24T11:07:51;23.70;;;11.00;;
67640;SDS011;54434;50.096;20.082;2023-01-24T11:10:38;22.80;;;10.30;;
67640;SDS011;54434;50.096;20.082;2023-01-24T11:13:35;21.70;;;10.50;;
67640;SDS011;54434;50.096;20.082;2023-01-24T11:16:26;20.60;;;10.20;;
67640;SDS011;54434;50.096;20.082;2023-01-24T11:19:27;19.50;;;9.30;;
67640;SDS011;54434;50.096;20.082;2023-01-24T11:22:21;18.60;;;10.30;;
67640;SDS011;54434;50.096;20.082;2023-01-24T11:25:12;19.80;;;9.90;;
67640;SDS011;54434;50.096;20.082;2023-01-24T11:27:51;20.40;;;10.00;;
67640;SDS011;54434;50.096;20.082;2023-01-24T11:30:27;21.20;;;10.20;;
67640;SDS011;54434;50.096;20.082;2023-01-24T11:33:36;20.30;;;9.30;;
67640;SDS011;54434;50.096;20.082;2023-01-24T11:36:38;19.50;;;9.40;;
67640;SDS011;54434;50.096;20.082;2023-01-24T11:39:29;18.60;;;8.70;;
67640;SDS011;54434;50.096;20.082;2023-01-24T11:42:24;22.60;;;8.90;;
67640;SDS011;54434;50.096;20.082;2023-01-24T11:45:35;17.40;;;9.00;;
67640;SDS011;54434;50.096;20.082;2023-01-24T11:48:27;20.10;;;10.20;;
67640;SDS011;54434;50.096;20.082;2023-01-24T11:51:16;17.60;;;8.50;;
67640;SDS011;54434;50.096;20.082;2023-01-24T11:54:28;19.30;;;9.50;;
67640;SDS011;54434;50.096;20.082;2023-01-24T11:57:23;19.50;;;9.80;;
67640;SDS011;54434;50.096;20.082;2023-01-24T12:00:30;17.90;;;9.40;;
67640;SDS011;54434;50.096;20.082;2023-01-24T12:03:44;17.30;;;9.80;;
67640;SDS011;54434;50.096;20.082;2023-01-24T12:06:39;17.30;;;8.80;;
67640;SDS011;54434;50.096;20.082;2023-01-24T12:09:23;15.00;;;7.50;;
67640;SDS011;54434;50.096;20.082;2023-01-24T12:15:12;21.10;;;10.40;;
67640;SDS011;54434;50.096;20.082;2023-01-24T12:18:15;19.20;;;10.30;;
67640;SDS011;54434;50.096;20.082;2023-01-24T12:21:06;17.70;;;8.60;;
67640;SDS011;54434;50.096;20.082;2023-01-24T12:24:00;16.90;;;9.20;;
67640;SDS011;54434;50.096;20.082;2023-01-24T12:26:51;21.70;;;10.00;;
67640;SDS011;54434;50.096;20.082;2023-01-24T12:29:36;20.00;;;9.70;;
67640;SDS011;54434;50.096;20.082;2023-01-24T12:32:25;22.00;;;10.60;;
67640;SDS011;54434;50.096;20.082;2023-01-24T12:35:14;17.00;;;8.90;;
67640;SDS011;54434;50.096;20.082;2023-01-24T12:38:03;19.80;;;9.80;;
67640;SDS011;54434;50.096;20.082;2023-01-24T12:40:52;21.70;;;10.10;;
67640;SDS011;54434;50.096;20.082;2023-01-24T12:43:51;23.30;;;11.00;;
67640;SDS011;54434;50.096;20.082;2023-01-24T12:46:39;20.20;;;9.90;;
67640;SDS011;54434;50.096;20.082;2023-01-24T12:49:29;22.00;;;10.00;;
67640;SDS011;54434;50.096;20.082;2023-01-24T12:52:22;21.00;;;9.80;;
67640;SDS011;54434;50.096;20.082;2023-01-24T12:55:08;22.10;;;10.20;;
67640;SDS011;54434;50.096;20.082;2023-01-24T12:57:50;24.40;;;11.80;;
67640;SDS011;54434;50.096;20.082;2023-01-24T13:00:45;19.20;;;9.30;;
67640;SDS011;54434;50.096;20.082;2023-01-24T13:03:57;26.10;;;10.90;;
67640;SDS011;54434;50.096;20.082;2023-01-24T13:06:48;17.30;;;9.20;;
67640;SDS011;54434;50.096;20.082;2023-01-24T13:09:41;16.90;;;8.30;;
67640;SDS011;54434;50.096;20.082;2023-01-24T13:12:24;17.80;;;9.00;;
67640;SDS011;54434;50.096;20.082;2023-01-24T13:15:09;18.90;;;9.30;;
67640;SDS011;54434;50.096;20.082;2023-01-24T13:18:12;21.30;;;10.20;;
67640;SDS011;54434;50.096;20.082;2023-01-24T13:21:15;19.80;;;9.60;;
67640;SDS011;54434;50.096;20.082;2023-01-24T13:24:43;16.10;;;8.40;;
67640;SDS011;54434;50.096;20.082;2023-01-24T13:27:35;19.80;;;10.20;;
67640;SDS011;54434;50.096;20.082;2023-01-24T13:30:36;15.30;;;7.90;;
67640;SDS011;54434;50.096;20.082;2023-01-24T13:33:25;16.90;;;8.30;;
67640;SDS011;54434;50.096;20.082;2023-01-24T13:36:07;13.80;;;7.80;;
67640;SDS011;54434;50.096;20.082;2023-01-24T13:38:49;15.00;;;8.50;;
67640;SDS011;54434;50.096;20.082;2023-01-24T13:41:38;17.20;;;8.90;;
67640;SDS011;54434;50.096;20.082;2023-01-24T13:44:33;15.10;;;9.00;;
67640;SDS011;54434;50.096;20.082;2023-01-24T13:47:34;15.40;;;8.20;;
67640;SDS011;54434;50.096;20.082;2023-01-24T13:52:55;15.90;;;8.60;;
67640;SDS011;54434;50.096;20.082;2023-01-24T13:56:05;18.50;;;7.60;;
67640;SDS011;54434;50.096;20.082;2023-01-24T13:58:48;19.40;;;9.40;;
67640;SDS011;54434;50.096;20.082;2023-01-24T14:01:28;20.30;;;9.00;;
67640;SDS011;54434;50.096;20.082;2023-01-24T14:04:05;19.90;;;10.40;;
67640;SDS011;54434;50.096;20.082;2023-01-24T14:06:45;18.40;;;10.10;;
67640;SDS011;54434;50.096;20.082;2023-01-24T14:09:26;19.40;;;10.00;;
67640;SDS011;54434;50.096;20.082;2023-01-24T14:12:05;17.70;;;9.60;;
67640;SDS011;54434;50.096;20.082;2023-01-24T14:15:23;19.20;;;9.60;;
67640;SDS011;54434;50.096;20.082;2023-01-24T14:18:02;19.50;;;9.50;;
67640;SDS011;54434;50.096;20.082;2023-01-24T14:21:17;19.50;;;9.50;;
67640;SDS011;54434;50.096;20.082;2023-01-24T14:24:01;23.20;;;11.10;;
67640;SDS011;54434;50.096;20.082;2023-01-24T14:26:56;17.20;;;8.80;;
67640;SDS011;54434;50.096;20.082;2023-01-24T14:29:38;19.90;;;11.40;;
67640;SDS011;54434;50.096;20.082;2023-01-24T14:32:27;23.00;;;11.30;;
67640;SDS011;54434;50.096;20.082;2023-01-24T14:35:18;22.30;;;10.10;;
67640;SDS011;54434;50.096;20.082;2023-01-24T14:38:12;23.90;;;11.90;;
67640;SDS011;54434;50.096;20.082;2023-01-24T14:40:54;20.60;;;10.30;;
67640;SDS011;54434;50.096;20.082;2023-01-24T14:43:38;24.80;;;11.40;;
67640;SDS011;54434;50.096;20.082;2023-01-24T14:46:22;23.80;;;10.40;;
67640;SDS011;54434;50.096;20.082;2023-01-24T14:48:59;20.10;;;11.30;;
67640;SDS011;54434;50.096;20.082;2023-01-24T14:51:48;22.60;;;11.20;;
67640;SDS011;54434;50.096;20.082;2023-01-24T14:54:26;20.30;;;10.50;;
67640;SDS011;54434;50.096;20.082;2023-01-24T14:57:02;23.10;;;10.50;;
67640;SDS011;54434;50.096;20.082;2023-01-24T15:00:14;22.80;;;10.70;;
67640;SDS011;54434;50.096;20.082;2023-01-24T15:02:57;20.60;;;9.50;;
67640;SDS011;54434;50.096;20.082;2023-01-24T15:05:37;19.60;;;9.80;;
67640;SDS011;54434;50.096;20.082;2023-01-24T15:08:17;17.10;;;9.20;;
67640;SDS011;54434;50.096;20.082;2023-01-24T15:11:01;18.30;;;9.40;;
67640;SDS011;54434;50.096;20.082;2023-01-24T15:13:48;21.90;;;9.50;;
67640;SDS011;54434;50.096;20.082;2023-01-24T15:16:34;18.90;;;8.80;;
67640;SDS011;54434;50.096;20.082;2023-01-24T15:19:20;18.50;;;10.00;;
67640;SDS011;54434;50.096;20.082;2023-01-24T15:22:41;16.40;;;8.80;;
67640;SDS011;54434;50.096;20.082;2023-01-24T15:25:29;17.00;;;9.00;;
67640;SDS011;54434;50.096;20.082;2023-01-24T15:28:20;13.80;;;7.30;;
67640;SDS011;54434;50.096;20.082;2023-01-24T15:31:02;15.60;;;8.60;;
67640;SDS011;54434;50.096;20.082;2023-01-24T15:33:44;19.30;;;9.50;;
67640;SDS011;54434;50.096;20.082;2023-01-24T15:36:29;19.50;;;9.60;;
67640;SDS011;54434;50.096;20.082;2023-01-24T15:39:21;17.20;;;9.30;;
67640;SDS011;54434;50.096;20.082;2023-01-24T15:44:50;15.10;;;7.90;;
67640;SDS011;54434;50.096;20.082;2023-01-24T15:47:27;13.20;;;5.90;;
67640;SDS011;54434;50.096;20.082;2023-01-24T15:50:22;18.40;;;8.80;;
67640;SDS011;54434;50.096;20.082;2023-01-24T15:53:31;18.00;;;7.60;;
67640;SDS011;54434;50.096;20.082;2023-01-24T15:56:15;16.80;;;8.90;;
67640;SDS011;54434;50.096;20.082;2023-01-24T15:58:55;13.80;;;7.80;;
67640;SDS011;54434;50.096;20.082;2023-01-24T16:01:31;16.10;;;8.10;;
67640;SDS011;54434;50.096;20.082;2023-01-24T16:04:16;18.80;;;9.50;;